Time;durP1;ratioP1;P1;durP2;ratioP2;P2;SDS_P1;SDS_P2;PMS_P1;PMS_P2;Temp;Humidity;BMP_temperature;BMP_pressure;BME280_temperature;BME280_humidity;BME280_pressure;Samples;Min_cycle;Max_cycle;Signal;HPM_P1;HPM_P2
2022/04/09 00:02:34;;;;;;;15.93;10.55;;;;;;;6.84;64.85;98200.84;2084200;85;33629;-65
2022/04/09 00:05:37;;;;;;;16.50;11.15;;;;;;;6.84;64.93;98202.17;2083038;85;34929;-66
2022/04/09 00:08:39;;;;;;;16.52;10.63;;;;;;;6.83;64.94;98190.66;2082709;85;28182;-66
2022/04/09 00:11:41;;;;;;;17.52;11.45;;;;;;;6.82;65.05;98179.64;2082971;85;29158;-66
2022/04/09 00:14:43;;;;;;;16.55;11.70;;;;;;;6.82;65.18;98189.44;2078476;85;32265;-65
2022/04/09 00:17:47;;;;;;;16.32;11.45;;;;;;;6.82;65.20;98176.14;2093731;85;33787;-65
2022/04/09 00:20:49;;;;;;;17.00;10.23;;;;;;;6.80;65.24;98174.05;2100241;84;29316;-64
2022/04/09 00:23:51;;;;;;;16.67;10.25;;;;;;;6.80;65.29;98167.40;2077830;85;27773;-65
2022/04/09 00:26:53;;;;;;;12.98;8.75;;;;;;;6.78;65.38;98160.00;2082186;84;29034;-67
2022/04/09 00:29:55;;;;;;;14.10;8.98;;;;;;;6.77;65.28;98144.98;2064797;86;31789;-66
2022/04/09 00:32:57;;;;;;;11.97;8.38;;;;;;;6.75;65.30;98135.80;2064498;86;33450;-67
2022/04/09 00:36:03;;;;;;;13.20;7.90;;;;;;;6.75;65.39;98129.14;2064411;86;30523;-66
2022/04/09 00:39:05;;;;;;;21.62;8.08;;;;;;;6.73;65.41;98117.75;2095624;85;27635;-67
2022/04/09 00:42:16;;;;;;;12.85;8.73;;;;;;;6.72;65.00;98129.34;2073923;85;29877;-66
2022/04/09 00:45:17;;;;;;;17.12;8.75;;;;;;;6.69;65.06;98137.07;2079555;85;31715;-66
2022/04/09 00:48:20;;;;;;;13.75;9.08;;;;;;;6.67;65.15;98142.10;2064811;86;32935;-67
2022/04/09 00:51:22;;;;;;;15.98;8.63;;;;;;;6.65;65.13;98127.59;2065023;86;29702;-66
2022/04/09 00:54:25;;;;;;;13.25;9.03;;;;;;;6.63;65.22;98120.65;2038785;85;27627;-64
2022/04/09 00:57:28;;;;;;;15.40;9.23;;;;;;;6.61;65.26;98130.57;2060513;85;28728;-66
2022/04/09 01:00:30;;;;;;;12.63;8.95;;;;;;;6.59;65.37;98133.81;2089667;84;31792;-67
2022/04/09 01:03:34;;;;;;;17.35;10.48;;;;;;;6.57;65.40;98142.38;2062425;86;33638;-67
2022/04/09 01:06:37;;;;;;;13.32;9.23;;;;;;;6.56;65.46;98152.64;2064979;86;29251;-67
2022/04/09 01:09:38;;;;;;;14.65;9.98;;;;;;;6.53;65.62;98155.03;2064932;86;27627;-67
2022/04/09 01:12:40;;;;;;;17.15;10.18;;;;;;;6.52;65.68;98147.52;2064760;85;29878;-67
2022/04/09 01:15:43;;;;;;;16.12;10.82;;;;;;;6.50;65.58;98146.77;2064709;86;32435;-67
2022/04/09 01:18:45;;;;;;;18.70;11.30;;;;;;;6.51;65.82;98162.27;2091464;85;33493;-68
2022/04/09 01:21:51;;;;;;;16.15;10.58;;;;;;;6.51;65.91;98171.08;2103600;83;29993;-67
2022/04/09 01:24:53;;;;;;;17.05;11.43;;;;;;;6.52;66.10;98186.09;2095720;85;27813;-67
2022/04/09 01:27:56;;;;;;;21.00;13.68;;;;;;;6.54;66.33;98192.63;2095596;84;29259;-67
2022/04/09 01:30:58;;;;;;;23.50;14.85;;;;;;;6.54;66.50;98197.94;2093556;85;31093;-66
2022/04/09 01:33:59;;;;;;;22.17;15.48;;;;;;;6.53;66.66;98208.23;2093894;85;34119;-67
2022/04/09 01:37:01;;;;;;;26.48;16.20;;;;;;;6.53;66.89;98214.89;2094387;85;29140;-67
2022/04/09 01:40:05;;;;;;;25.05;16.85;;;;;;;6.53;66.94;98222.88;2094310;85;28030;-67
2022/04/09 01:43:07;;;;;;;23.60;15.10;;;;;;;6.53;67.11;98228.19;2095375;85;29589;-67
2022/04/09 01:46:09;;;;;;;24.32;15.35;;;;;;;6.51;67.32;98230.94;2095345;85;32311;-67
2022/04/09 01:49:13;;;;;;;19.55;12.65;;;;;;;6.50;67.34;98236.37;2095052;85;33657;-66
2022/04/09 01:52:15;;;;;;;11.68;7.28;;;;;;;6.48;67.42;98237.78;2093897;85;29515;-66
2022/04/09 01:55:17;;;;;;;16.35;8.10;;;;;;;6.45;67.10;98239.80;2095979;84;27558;-66
2022/04/09 01:58:19;;;;;;;16.25;8.20;;;;;;;6.43;67.20;98246.56;2094542;84;29917;-67
2022/04/09 02:01:21;;;;;;;13.08;8.30;;;;;;;6.39;67.29;98251.20;2081528;84;31027;-66
2022/04/09 02:04:23;;;;;;;18.87;8.63;;;;;;;6.35;67.38;98260.83;2095501;84;33176;-66
2022/04/09 02:07:27;;;;;;;10.85;6.45;;;;;;;6.31;67.49;98268.62;2094675;85;29469;-66
2022/04/09 02:10:30;;;;;;;9.50;5.85;;;;;;;6.25;67.29;98279.67;2094932;84;27681;-66
2022/04/09 02:13:32;;;;;;;9.05;5.33;;;;;;;6.17;67.35;98273.52;2101515;84;28141;-66
2022/04/09 02:16:36;;;;;;;8.33;5.75;;;;;;;6.08;67.36;98278.95;2113406;83;31086;-67
2022/04/09 02:19:38;;;;;;;8.13;6.25;;;;;;;5.99;67.33;98279.03;2108783;83;33079;-67
2022/04/09 02:22:45;;;;;;;10.72;6.30;;;;;;;5.92;67.41;98285.67;2073411;85;30115;-66
2022/04/09 02:25:47;;;;;;;10.90;6.12;;;;;;;5.88;67.68;98293.45;2113813;84;27717;-66
2022/04/09 02:28:49;;;;;;;10.03;6.37;;;;;;;5.85;67.77;98304.30;2104348;84;29371;-66
2022/04/09 02:31:51;;;;;;;10.80;6.50;;;;;;;5.81;67.79;98302.28;2044292;86;31815;-67
2022/04/09 02:34:53;;;;;;;9.63;6.40;;;;;;;5.75;67.87;98297.38;2076001;85;33528;-67
2022/04/09 02:37:55;;;;;;;12.37;7.78;;;;;;;5.68;67.96;98294.70;2112660;83;29775;-67
2022/04/09 02:40:59;;;;;;;10.55;7.50;;;;;;;5.62;68.03;98303.91;2113645;84;27688;-67
2022/04/09 02:44:01;;;;;;;10.10;6.72;;;;;;;5.57;68.12;98313.95;2084041;83;29711;-66
2022/04/09 02:47:04;;;;;;;9.28;6.83;;;;;;;5.54;68.26;98316.83;2043035;87;31403;-66
2022/04/09 02:50:08;;;;;;;11.35;7.62;;;;;;;5.52;68.42;98306.27;2123769;83;33774;-67
2022/04/09 02:53:11;;;;;;;13.18;8.13;;;;;;;5.51;68.61;98307.22;2143659;83;30152;-66
2022/04/09 02:56:14;;;;;;;11.60;7.37;;;;;;;5.50;68.70;98320.61;2144131;83;28135;-67
2022/04/09 02:59:16;;;;;;;10.95;7.05;;;;;;;5.45;68.63;98323.06;2124759;83;29880;-67
2022/04/09 03:02:18;;;;;;;13.08;7.20;;;;;;;5.42;68.67;98325.05;2087837;83;32194;-67
2022/04/09 03:05:20;;;;;;;9.63;7.08;;;;;;;5.36;68.77;98317.45;2093041;84;33372;-67
2022/04/09 03:08:22;;;;;;;10.48;7.28;;;;;;;5.26;68.74;98331.74;2091405;85;29411;-68
2022/04/09 03:11:25;;;;;;;10.70;6.62;;;;;;;5.19;68.71;98330.42;2111294;84;27751;-67
2022/04/09 03:14:26;;;;;;;9.18;6.78;;;;;;;5.14;68.95;98324.91;2111438;83;29598;-67
2022/04/09 03:17:28;;;;;;;14.45;7.30;;;;;;;5.09;68.96;98329.62;2076646;85;32264;-67
2022/04/09 03:20:30;;;;;;;12.88;7.90;;;;;;;5.05;69.10;98341.84;2111667;84;33083;-66
2022/04/09 03:23:32;;;;;;;11.88;7.42;;;;;;;5.02;69.28;98356.16;2076743;85;29359;-67
2022/04/09 03:26:34;;;;;;;12.33;7.47;;;;;;;5.01;69.44;98367.22;2113492;84;27726;-67
2022/04/09 03:29:35;;;;;;;11.10;7.53;;;;;;;5.03;69.70;98356.54;2129108;83;28587;-67
2022/04/09 03:32:39;;;;;;;11.33;8.33;;;;;;;5.06;69.77;98362.13;2120360;83;32185;-66
2022/04/09 03:35:41;;;;;;;9.68;7.65;;;;;;;5.05;69.89;98367.05;2126982;83;33591;-66
2022/04/09 03:38:43;;;;;;;12.28;7.62;;;;;;;5.05;69.86;98373.69;2077941;85;30368;-66
2022/04/09 03:41:45;;;;;;;11.15;7.95;;;;;;;5.04;69.96;98385.24;2056988;86;27800;-66
2022/04/09 03:44:47;;;;;;;8.53;6.55;;;;;;;5.00;69.89;98384.09;2085718;84;28680;-66
2022/04/09 03:47:49;;;;;;;10.65;6.22;;;;;;;4.95;69.88;98384.84;2103463;83;32222;-67
2022/04/09 03:50:51;;;;;;;9.43;7.30;;;;;;;4.90;70.08;98391.34;2118809;83;34192;-67
2022/04/09 03:53:53;;;;;;;14.10;7.55;;;;;;;4.86;70.11;98394.64;2093769;83;29319;-66
2022/04/09 03:56:55;;;;;;;9.95;7.10;;;;;;;4.82;70.22;98411.67;2077920;85;27745;-67
2022/04/09 03:59:57;;;;;;;10.82;7.60;;;;;;;4.79;70.24;98413.20;2070038;86;28718;-67
2022/04/09 04:02:59;;;;;;;11.75;8.08;;;;;;;4.76;70.27;98410.71;2054206;85;31059;-66
2022/04/09 04:06:01;;;;;;;11.68;8.48;;;;;;;4.78;70.56;98422.09;2113461;84;32967;-67
2022/04/09 04:09:04;;;;;;;10.82;7.28;;;;;;;4.78;70.64;98422.94;2101792;84;29348;-67
2022/04/09 04:12:07;;;;;;;11.30;7.65;;;;;;;4.77;70.54;98427.85;2045374;85;27673;-67
2022/04/09 04:15:10;;;;;;;11.68;7.53;;;;;;;4.76;70.74;98438.08;2101196;82;29362;-66
2022/04/09 04:18:12;;;;;;;10.30;7.67;;;;;;;4.77;70.79;98437.63;2095416;84;31143;-67
2022/04/09 04:21:14;;;;;;;13.90;8.05;;;;;;;4.78;70.86;98436.69;2081710;85;33856;-66
2022/04/09 04:24:16;;;;;;;13.05;8.28;;;;;;;4.80;70.94;98445.42;2063941;85;30533;-66
2022/04/09 04:27:17;;;;;;;19.77;7.80;;;;;;;4.80;70.95;98450.72;2065142;86;27663;-66
2022/04/09 04:30:19;;;;;;;11.40;7.60;;;;;;;4.80;71.06;98453.37;2064374;86;28752;-67
2022/04/09 04:33:21;;;;;;;10.85;8.05;;;;;;;4.81;71.16;98454.60;2064050;86;31445;-66
2022/04/09 04:36:24;;;;;;;12.00;7.72;;;;;;;4.82;71.11;98448.81;2063132;86;33817;-65
2022/04/09 04:39:26;;;;;;;10.23;7.62;;;;;;;4.84;71.11;98450.91;2065021;86;29260;-66
2022/04/09 04:42:28;;;;;;;11.18;7.67;;;;;;;4.88;71.25;98452.45;2085884;85;27686;-67
2022/04/09 04:45:31;;;;;;;11.65;8.40;;;;;;;4.93;71.41;98454.84;2063756;86;28701;-66
2022/04/09 04:48:33;;;;;;;13.18;8.85;;;;;;;4.97;71.39;98458.56;2069573;85;31946;-67
2022/04/09 04:51:35;;;;;;;12.23;9.33;;;;;;;5.01;71.37;98456.61;2084457;84;33778;-66
2022/04/09 04:54:36;;;;;;;13.68;9.53;;;;;;;5.06;71.39;98457.67;2064372;86;30447;-65
2022/04/09 04:57:48;;;;;;;14.80;10.23;;;;;;;5.10;71.34;98458.73;2095676;85;27697;-65
2022/04/09 05:00:51;;;;;;;18.32;10.50;;;;;;;5.15;71.44;98464.64;2095514;85;28743;-67
2022/04/09 05:03:53;;;;;;;13.98;10.20;;;;;;;5.21;71.39;98462.59;2095481;85;31205;-65
2022/04/09 05:06:55;;;;;;;22.37;14.03;;;;;;;5.28;71.44;98453.31;2095746;85;32976;-65
2022/04/09 05:09:58;;;;;;;14.20;9.63;;;;;;;5.35;71.42;98459.98;2095829;85;29340;-66
2022/04/09 05:12:59;;;;;;;14.20;9.80;;;;;;;5.42;71.36;98468.45;2072383;84;27699;-66
2022/04/09 05:16:02;;;;;;;11.38;8.80;;;;;;;5.48;71.45;98480.90;2039137;87;29890;-65
2022/04/09 05:19:05;;;;;;;11.20;8.53;;;;;;;5.53;71.45;98480.62;2037759;87;31674;-66
2022/04/09 05:22:06;;;;;;;12.68;8.98;;;;;;;5.58;71.34;98493.17;2037815;87;33194;-66
2022/04/09 05:25:10;;;;;;;14.00;8.65;;;;;;;5.61;71.32;98494.33;2037965;87;29146;-66
2022/04/09 05:28:12;;;;;;;14.35;8.10;;;;;;;5.66;71.26;98494.05;2040096;85;28029;-66
2022/04/09 05:31:14;;;;;;;12.20;7.72;;;;;;;5.67;71.12;98499.75;2070767;86;29523;-65
2022/04/09 05:34:16;;;;;;;12.70;7.60;;;;;;;5.67;71.01;98517.02;2070757;86;31795;-66
2022/04/09 05:37:18;;;;;;;10.50;6.87;;;;;;;5.64;70.84;98514.53;2071622;85;32955;-66
2022/04/09 05:40:22;;;;;;;10.72;7.70;;;;;;;5.64;71.02;98521.17;2067379;86;29858;-66
2022/04/09 05:43:24;;;;;;;9.80;6.58;;;;;;;5.67;70.95;98532.08;2038033;87;27738;-66
2022/04/09 05:46:27;;;;;;;12.60;8.43;;;;;;;5.70;71.04;98534.11;2037129;87;29289;-66
2022/04/09 05:49:29;;;;;;;12.28;8.05;;;;;;;5.78;71.19;98530.52;2048134;85;31058;-66
2022/04/09 05:52:30;;;;;;;11.60;7.87;;;;;;;5.86;71.08;98540.70;2037439;87;33407;-68
2022/04/09 05:55:32;;;;;;;12.35;7.25;;;;;;;5.91;70.90;98551.05;2037285;87;30493;-65
2022/04/09 05:58:36;;;;;;;12.82;6.95;;;;;;;6.00;71.07;98569.16;2061417;84;27713;-66
2022/04/09 06:01:38;;;;;;;12.07;6.92;;;;;;;6.09;70.97;98575.73;2083758;84;29535;-68
2022/04/09 06:04:39;;;;;;;10.13;6.60;;;;;;;6.21;71.11;98588.30;2099403;84;30862;-67
2022/04/09 06:07:41;;;;;;;11.75;6.85;;;;;;;6.37;70.85;98594.03;2071352;85;33417;-69
2022/04/09 06:10:43;;;;;;;12.88;7.30;;;;;;;6.48;70.65;98594.23;2041423;85;30457;-68
2022/04/09 06:13:45;;;;;;;14.18;7.58;;;;;;;6.58;70.46;98607.83;2037965;87;27625;-69
2022/04/09 06:16:48;;;;;;;10.90;7.17;;;;;;;6.70;70.18;98612.89;2057962;84;29904;-69
2022/04/09 06:19:50;;;;;;;10.75;6.78;;;;;;;6.80;70.36;98623.83;2095227;85;31566;-64
2022/04/09 06:22:52;;;;;;;11.95;6.95;;;;;;;6.90;70.01;98620.97;2083951;84;33113;-69
2022/04/09 06:25:53;;;;;;;9.68;6.67;;;;;;;6.99;70.00;98624.88;2080495;85;29387;-66
2022/04/09 06:28:56;;;;;;;13.15;9.00;;;;;;;7.06;69.69;98628.87;2078400;85;28367;-68
2022/04/09 06:31:58;;;;;;;9.50;7.90;;;;;;;7.09;69.38;98638.47;2066385;85;28849;-67
2022/04/09 06:34:59;;;;;;;14.65;7.65;;;;;;;7.11;69.27;98641.44;2079820;85;31927;-68
2022/04/09 06:38:02;;;;;;;12.35;7.20;;;;;;;7.22;69.34;98650.55;2037170;86;33392;-67
2022/04/09 06:41:03;;;;;;;10.28;7.03;;;;;;;7.43;69.48;98663.86;2025149;87;30145;-65
2022/04/09 06:44:07;;;;;;;10.20;6.53;;;;;;;7.60;69.24;98668.11;2036117;86;27714;-66
2022/04/09 06:47:09;;;;;;;10.00;6.28;;;;;;;7.78;68.83;98672.38;2025910;87;28666;-67
2022/04/09 06:50:13;;;;;;;12.25;6.95;;;;;;;7.89;68.38;98685.36;2046065;85;31466;-67
2022/04/09 06:53:15;;;;;;;11.85;6.62;;;;;;;8.05;68.42;98693.69;2071417;85;33004;-67
2022/04/09 06:56:17;;;;;;;9.98;5.90;;;;;;;8.19;68.33;98704.31;2073054;85;30556;-68
2022/04/09 06:59:19;;;;;;;12.13;5.92;;;;;;;8.31;67.82;98712.48;2059394;85;28227;-69
2022/04/09 07:02:21;;;;;;;8.35;5.17;;;;;;;8.41;67.69;98718.06;2083180;85;28747;-68
2022/04/09 07:05:22;;;;;;;14.40;5.90;;;;;;;8.53;67.40;98729.75;2049342;86;31443;-68
2022/04/09 07:08:25;;;;;;;12.40;6.12;;;;;;;8.69;67.16;98733.59;2076731;85;33882;-68
2022/04/09 07:11:27;;;;;;;13.18;6.03;;;;;;;8.85;66.77;98736.94;2044292;87;29339;-66
2022/04/09 07:14:29;;;;;;;10.32;5.95;;;;;;;9.03;66.72;98742.83;2012757;86;27670;-64
2022/04/09 07:17:31;;;;;;;8.08;5.08;;;;;;;9.19;66.47;98747.12;2078706;85;29919;-67
2022/04/09 07:20:35;;;;;;;9.95;4.78;;;;;;;9.33;66.30;98756.39;2083955;84;32533;-64
2022/04/09 07:23:37;;;;;;;11.78;7.70;;;;;;;9.48;65.71;98765.64;2076601;85;33073;-66
2022/04/09 07:26:39;;;;;;;8.65;5.58;;;;;;;9.63;65.80;98776.59;2083097;84;29415;-66
2022/04/09 07:29:42;;;;;;;11.05;5.45;;;;;;;9.79;65.39;98784.36;2107314;83;27619;-66
2022/04/09 07:32:44;;;;;;;12.75;5.45;;;;;;;9.87;64.68;98785.16;2178984;81;29408;-67
2022/04/09 07:35:45;;;;;;;12.07;5.30;;;;;;;9.90;64.18;98793.47;2153376;82;31054;-65
2022/04/09 07:38:47;;;;;;;11.85;6.12;;;;;;;10.00;64.24;98804.74;2182967;81;34071;-66
2022/04/09 07:41:50;;;;;;;17.80;5.40;;;;;;;10.06;63.47;98806.58;2157659;81;29753;-69
2022/04/09 07:44:52;;;;;;;12.13;5.03;;;;;;;9.97;63.21;98818.80;2152056;82;27678;-67
2022/04/09 07:47:57;;;;;;;9.33;4.85;;;;;;;9.83;63.00;98827.33;2153365;82;29915;-65
2022/04/09 07:50:59;;;;;;;9.25;5.00;;;;;;;9.79;63.07;98827.66;2152862;82;31903;-68
2022/04/09 07:54:02;;;;;;;11.60;5.83;;;;;;;10.06;63.35;98838.23;2156141;81;33985;-66
2022/04/09 07:57:05;;;;;;;10.00;5.15;;;;;;;10.31;62.31;98838.66;2153703;82;30099;-66
2022/04/09 08:00:09;;;;;;;11.55;5.00;;;;;;;10.42;61.75;98841.06;2153540;82;27674;-68
2022/04/09 08:03:12;;;;;;;7.17;3.95;;;;;;;10.58;61.95;98848.84;2153730;82;28695;-67
2022/04/09 08:06:17;;;;;;;9.60;3.50;;;;;;;10.99;62.48;98865.50;2154298;82;31817;-66
2022/04/09 08:09:19;;;;;;;7.45;3.27;;;;;;;11.28;60.86;98865.97;2152654;81;34165;-63
2022/04/09 08:12:21;;;;;;;11.05;5.85;;;;;;;11.28;59.96;98872.67;2178649;81;29373;-65
2022/04/09 08:15:24;;;;;;;8.48;3.00;;;;;;;11.20;59.39;98877.77;2163595;82;27750;-67
2022/04/09 08:18:26;;;;;;;6.35;3.27;;;;;;;11.15;59.44;98887.50;2157356;82;28112;-66
2022/04/09 08:21:29;;;;;;;10.50;3.27;;;;;;;11.44;58.86;98891.14;2152549;82;30877;-68
2022/04/09 08:24:32;;;;;;;6.40;3.05;;;;;;;11.42;58.40;98890.41;2153077;82;34159;-67
2022/04/09 08:27:35;;;;;;;9.33;3.22;;;;;;;11.80;58.89;98888.42;2153443;82;29394;-69
2022/04/09 08:30:40;;;;;;;7.55;3.47;;;;;;;12.54;58.96;98897.88;2172563;81;28235;-68
2022/04/09 08:33:42;;;;;;;11.05;2.95;;;;;;;12.92;57.65;98881.82;2155940;82;28651;-68
2022/04/09 08:36:45;;;;;;;10.13;4.30;;;;;;;12.93;57.01;98876.81;2155239;82;31818;-68
2022/04/09 08:39:47;;;;;;;12.58;3.50;;;;;;;12.90;56.59;98893.19;2152753;82;32995;-67
2022/04/09 08:42:51;;;;;;;7.42;3.05;;;;;;;12.55;55.64;98900.46;2164346;81;29906;-69
2022/04/09 08:45:55;;;;;;;8.93;3.42;;;;;;;12.22;56.02;98913.39;2151664;82;27701;-68
2022/04/09 08:48:59;;;;;;;9.70;3.35;;;;;;;12.10;56.31;98906.68;2149191;82;29563;-66
2022/04/09 08:52:01;;;;;;;6.07;3.33;;;;;;;11.96;55.99;98914.43;2149302;82;31019;-68
2022/04/09 08:55:05;;;;;;;4.40;2.85;;;;;;;11.64;55.54;98933.03;2116379;84;33166;-68
2022/04/09 08:58:07;;;;;;;4.92;2.22;;;;;;;11.28;54.59;98939.69;2126221;82;29978;-68
2022/04/09 09:01:09;;;;;;;5.50;2.35;;;;;;;11.22;55.65;98938.33;2148935;82;27703;-67
2022/04/09 09:04:12;;;;;;;7.37;2.62;;;;;;;11.35;54.88;98951.69;2152007;81;28645;-67
2022/04/09 09:07:24;;;;;;;9.25;3.70;;;;;;;11.38;54.21;98968.02;2153901;81;30941;-67
2022/04/09 09:10:26;;;;;;;11.88;6.62;;;;;;;11.52;53.76;98968.33;2152736;82;33825;-66
2022/04/09 09:13:29;;;;;;;6.80;2.45;;;;;;;11.67;54.28;98967.17;2171296;81;30067;-65
2022/04/09 09:16:33;;;;;;;7.03;4.12;;;;;;;11.70;53.29;98978.14;2150726;82;27730;-68
2022/04/09 09:19:47;;;;;;;6.55;3.10;;;;;;;11.80;53.19;98975.62;2143407;82;28647;-65
2022/04/09 09:22:49;;;;;;;6.15;2.95;;;;;;;11.76;52.41;98989.77;2164440;82;32253;-68
2022/04/09 09:25:55;;;;;;;6.58;4.10;;;;;;;11.69;52.30;99001.45;2165821;82;34163;-66
2022/04/09 09:28:57;;;;;;;7.55;3.42;;;;;;;11.66;51.89;98993.63;2160597;81;30153;-66
2022/04/09 09:32:02;;;;;;;7.65;3.45;;;;;;;11.68;52.27;99001.55;2140932;83;27791;-67
2022/04/09 09:35:06;;;;;;;3.75;2.37;;;;;;;11.77;51.94;99011.61;2141023;83;28648;-66
2022/04/09 09:38:20;;;;;;;8.00;3.27;;;;;;;11.85;51.59;99026.63;2141762;83;31863;-66
2022/04/09 09:41:26;;;;;;;8.00;3.05;;;;;;;11.90;50.78;99025.42;2139843;83;32965;-67
2022/04/09 09:44:34;;;;;;;5.28;2.72;;;;;;;12.01;50.56;99036.22;2136641;83;29998;-66
2022/04/09 09:47:38;;;;;;;4.65;2.25;;;;;;;12.02;50.13;99028.54;2136273;83;27752;-66
2022/04/09 09:50:41;;;;;;;8.20;3.20;;;;;;;12.08;49.87;99046.03;2139999;83;28883;-67
2022/04/09 09:53:44;;;;;;;4.70;1.65;;;;;;;12.09;49.33;99038.32;2155893;82;31109;-68
2022/04/09 09:56:47;;;;;;;5.85;3.15;;;;;;;12.19;49.31;99040.69;2162064;81;33855;-67
2022/04/09 09:59:55;;;;;;;6.00;2.85;;;;;;;12.25;49.32;99037.52;2138338;83;28799;-67
2022/04/09 10:03:00;;;;;;;4.35;2.35;;;;;;;12.30;48.85;99036.68;2138214;83;27642;-67
2022/04/09 10:06:05;;;;;;;4.30;2.02;;;;;;;12.45;49.21;99051.23;2159396;82;28693;-67
2022/04/09 10:09:09;;;;;;;6.05;3.00;;;;;;;12.61;48.75;99044.19;2158699;82;31019;-65
2022/04/09 10:12:13;;;;;;;5.22;2.15;;;;;;;12.72;48.51;99057.63;2139466;82;33624;-67
2022/04/09 10:15:17;;;;;;;5.87;2.75;;;;;;;12.73;47.64;99063.87;2169999;82;30241;-66
2022/04/09 10:18:24;;;;;;;6.03;3.33;;;;;;;12.84;47.64;99072.41;2158472;81;27700;-66
2022/04/09 10:21:29;;;;;;;6.08;2.67;;;;;;;12.94;47.52;99077.91;2149001;82;28695;-67
2022/04/09 10:24:31;;;;;;;5.83;2.67;;;;;;;12.99;46.52;99082.44;2150127;82;31781;-68
2022/04/09 10:27:45;;;;;;;6.53;3.77;;;;;;;12.98;46.22;99091.48;2149663;82;33566;-67
2022/04/09 10:30:48;;;;;;;4.60;3.00;;;;;;;12.86;45.82;99112.11;2118298;81;29934;-61
2022/04/09 10:33:58;;;;;;;8.93;3.17;;;;;;;12.82;46.21;99103.95;2092755;84;27681;-66
2022/04/09 10:37:03;;;;;;;8.10;3.05;;;;;;;12.95;46.38;99107.84;2071017;85;28655;-61
2022/04/09 10:40:06;;;;;;;;;;;;;;;13.09;46.18;99111.64;2111254;84;32422;-62
2022/04/09 10:43:08;;;;;;;5.70;2.72;;;;;;;13.27;44.91;99113.37;2103833;84;34246;-62
2022/04/09 10:46:19;;;;;;;3.02;2.35;;;;;;;13.37;44.27;99122.90;2102635;84;29339;-65
2022/04/09 10:49:19;;;;;;;5.05;2.45;;;;;;;13.47;45.03;99125.23;2102663;84;27637;-62
2022/04/09 10:52:23;;;;;;;6.95;2.47;;;;;;;13.53;44.06;99119.84;2107036;83;28929;-61
2022/04/09 10:55:30;;;;;;;4.97;2.50;;;;;;;13.38;42.72;99126.80;2071737;85;32241;-63
2022/04/09 10:58:30;;;;;;;5.50;2.30;;;;;;;13.35;43.19;99137.80;2103128;84;33052;-63
2022/04/09 11:01:50;;;;;;;4.53;1.90;;;;;;;13.44;43.69;99121.95;2108495;84;30516;-62
2022/04/09 11:04:53;;;;;;;3.83;2.75;;;;;;;13.58;43.52;99127.06;2109126;83;27745;-62
2022/04/09 11:08:19;;;;;;;4.05;3.40;;;;;;;13.75;42.89;99119.45;2109294;84;28733;-62
2022/04/09 11:11:28;;;;;;;16.85;9.53;;;;;;;13.78;43.24;99133.50;2108926;84;32285;-62
2022/04/09 11:14:30;;;;;;;15.20;6.50;;;;;;;13.80;42.01;99116.73;2109119;84;33841;-62
2022/04/09 11:17:36;;;;;;;7.67;3.60;;;;;;;13.73;42.84;99138.42;2109102;84;30092;-62
2022/04/09 11:20:38;;;;;;;13.85;6.35;;;;;;;13.69;43.15;99135.61;2115196;82;27725;-62
2022/04/09 11:23:40;;;;;;;6.20;4.05;;;;;;;13.76;42.62;99126.54;2114933;82;28665;-62
2022/04/09 11:26:44;;;;;;;3.65;2.10;;;;;;;13.86;43.18;99131.52;2064220;86;31383;-62
2022/04/09 11:29:46;;;;;;;6.90;4.28;;;;;;;13.96;42.35;99140.57;2075875;85;33129;-62
2022/04/09 11:32:48;;;;;;;27.25;17.25;;;;;;;14.02;40.43;99133.81;2061980;85;30073;-63
2022/04/09 11:35:51;;;;;;;6.30;2.85;;;;;;;13.87;41.20;99147.20;2088409;85;27670;-63
2022/04/09 11:38:53;;;;;;;64.90;28.20;;;;;;;13.79;41.27;99145.98;2087820;85;28718;-64
2022/04/09 11:41:55;;;;;;;27.17;12.05;;;;;;;13.73;42.03;99151.88;2088100;85;31724;-63
2022/04/09 11:44:58;;;;;;;7.45;2.98;;;;;;;13.75;41.77;99151.75;2088046;85;33453;-62
2022/04/09 11:48:02;;;;;;;28.73;13.53;;;;;;;13.50;41.42;99142.48;2089533;83;29341;-61
2022/04/09 11:51:04;;;;;;;12.50;7.10;;;;;;;13.25;42.00;99152.10;2088482;85;27708;-64
2022/04/09 11:54:17;;;;;;;4.55;2.55;;;;;;;13.05;41.96;99149.18;2091576;83;29868;-62
2022/04/09 11:57:20;;;;;;;4.12;2.10;;;;;;;12.85;42.15;99134.59;2088132;85;31873;-62
2022/04/09 12:00:27;;;;;;;6.75;1.85;;;;;;;12.76;42.59;99124.94;2088404;85;32982;-62
2022/04/09 12:03:29;;;;;;;4.78;2.22;;;;;;;12.68;42.20;99138.10;2088564;85;29343;-62
2022/04/09 12:06:31;;;;;;;14.10;6.22;;;;;;;12.56;42.31;99143.95;2088159;85;27642;-61
2022/04/09 12:09:33;;;;;;;5.62;2.42;;;;;;;12.48;42.37;99139.64;2088059;85;29873;-61
2022/04/09 12:12:41;;;;;;;7.35;2.50;;;;;;;12.46;42.06;99142.93;2094204;83;32245;-61
2022/04/09 12:15:42;;;;;;;6.67;2.75;;;;;;;12.69;42.75;99145.69;2101928;83;32891;-63
2022/04/09 12:18:46;;;;;;;4.70;1.55;;;;;;;12.88;41.94;99144.64;2102650;83;30523;-62
2022/04/09 12:21:48;;;;;;;3.62;1.75;;;;;;;12.85;41.43;99169.53;2151565;81;27646;-61
2022/04/09 12:24:56;;;;;;;8.53;4.97;;;;;;;12.77;41.56;99171.47;2137822;83;29013;-61
2022/04/09 12:27:58;;;;;;;6.55;3.67;;;;;;;12.85;41.72;99182.50;2137988;83;31068;-61
2022/04/09 12:31:01;;;;;;;9.65;6.15;;;;;;;13.01;41.66;99188.03;2138217;81;33672;-61
2022/04/09 12:34:04;;;;;;;5.42;2.58;;;;;;;13.14;41.79;99196.00;2145492;81;29337;-62
2022/04/09 12:37:06;;;;;;;5.72;2.02;;;;;;;13.10;42.11;99200.74;2146011;81;27678;-62
2022/04/09 12:40:21;;;;;;;9.58;4.00;;;;;;;13.09;42.33;99204.41;2168303;82;28821;-61
2022/04/09 12:43:41;;;;;;;7.78;2.83;;;;;;;12.99;42.63;99203.42;2138589;83;31017;-62
2022/04/09 12:46:49;;;;;;;4.62;1.87;;;;;;;12.83;42.91;99203.27;2166277;82;32807;-64
2022/04/09 12:49:51;;;;;;;2.83;1.67;;;;;;;12.71;43.08;99213.11;2169616;82;30235;-64
2022/04/09 12:52:54;;;;;;;4.50;1.62;;;;;;;12.68;43.70;99216.03;2162694;82;27655;-65
2022/04/09 12:55:56;;;;;;;4.95;1.67;;;;;;;12.60;43.79;99217.11;2138526;83;28630;-62
2022/04/09 12:58:58;;;;;;;2.25;1.10;;;;;;;12.46;43.67;99224.39;2168456;82;32256;-62
2022/04/09 13:02:01;;;;;;;2.90;1.35;;;;;;;12.29;43.44;99221.60;2149235;81;33490;-63
2022/04/09 13:05:05;;;;;;;6.85;2.40;;;;;;;12.16;43.96;99220.80;2114538;83;29380;-62
2022/04/09 13:08:07;;;;;;;2.42;1.37;;;;;;;12.00;43.82;99217.91;2140494;83;27812;-63
2022/04/09 13:11:14;;;;;;;1.50;0.82;;;;;;;11.88;43.98;99217.90;2123666;83;29900;-62
2022/04/09 13:14:13;;;;;;;1.67;0.85;;;;;;;11.74;43.52;99222.95;2161183;82;31083;-63
2022/04/09 13:17:15;;;;;;;5.83;1.30;;;;;;;11.62;43.69;99221.50;2155106;81;34175;-62
2022/04/09 13:20:17;;;;;;;2.70;0.95;;;;;;;11.49;43.23;99215.30;2117275;82;30778;-63
2022/04/09 13:23:19;;;;;;;3.05;1.02;;;;;;;11.33;42.79;99229.79;2170155;82;27634;-61
2022/04/09 13:26:21;;;;;;;9.50;3.30;;;;;;;11.28;43.05;99237.29;2169398;82;29916;-62
2022/04/09 13:29:23;;;;;;;5.17;2.00;;;;;;;11.31;43.34;99246.96;2162204;82;32367;-62
2022/04/09 13:32:25;;;;;;;3.67;1.47;;;;;;;11.35;43.77;99241.27;2141548;82;34108;-62
2022/04/09 13:35:28;;;;;;;2.80;1.37;;;;;;;11.36;44.56;99241.64;2169579;81;30482;-62
2022/04/09 13:38:30;;;;;;;3.20;1.30;;;;;;;11.46;45.23;99239.18;2144673;82;27658;-61
2022/04/09 13:41:32;;;;;;;3.87;2.02;;;;;;;11.44;44.87;99231.72;2138248;83;29560;-62
2022/04/09 13:44:34;;;;;;;3.67;2.37;;;;;;;11.39;44.14;99235.20;2143023;82;32221;-62
2022/04/09 13:47:35;;;;;;;3.77;2.25;;;;;;;11.26;44.00;99228.48;2115403;81;33333;-61
2022/04/09 13:50:37;;;;;;;4.22;2.33;;;;;;;11.09;44.45;99231.02;2099686;84;29724;-62
2022/04/09 13:53:41;;;;;;;4.22;1.50;;;;;;;11.02;44.59;99229.71;2120122;83;27722;-61
2022/04/09 13:56:46;;;;;;;3.15;1.50;;;;;;;10.91;44.39;99229.98;2138224;83;29269;-61
2022/04/09 13:59:49;;;;;;;4.37;1.80;;;;;;;10.85;44.17;99229.55;2134227;83;30994;-70
2022/04/09 14:02:51;;;;;;;5.47;2.50;;;;;;;10.77;44.26;99229.56;2095454;84;34208;-63
2022/04/09 14:05:53;;;;;;;10.25;2.87;;;;;;;10.72;43.65;99235.73;2095443;84;30038;-64
2022/04/09 14:08:55;;;;;;;8.90;3.05;;;;;;;10.66;43.48;99235.30;2086313;85;27666;-63
2022/04/09 14:11:58;;;;;;;17.52;7.25;;;;;;;10.58;43.61;99229.13;2081759;85;29431;-63
2022/04/09 14:14:59;;;;;;;3.10;1.80;;;;;;;10.54;43.89;99245.85;2094796;85;31877;-65
2022/04/09 14:18:01;;;;;;;16.73;5.90;;;;;;;10.56;43.47;99244.42;2080470;85;34075;-63
2022/04/09 14:21:04;;;;;;;13.15;5.60;;;;;;;10.56;43.60;99245.77;2101452;83;30519;-63